createdAt,value
2017-06-27T00:00:02.702Z,83.34
2017-06-27T00:10:02.233Z,83.25
2017-06-27T00:20:02.735Z,84.15
2017-06-27T00:30:02.182Z,84.71
2017-06-27T00:40:02.665Z,85.24
2017-06-27T00:50:02.492Z,85.53
2017-06-27T01:00:02.989Z,86.11
2017-06-27T01:10:02.664Z,85.69
2017-06-27T01:20:02.578Z,86.54
2017-06-27T01:30:02.045Z,86.08
2017-06-27T01:40:02.397Z,86.4
2017-06-27T01:50:02.670Z,87.3
2017-06-27T02:00:02.168Z,87.72
2017-06-27T02:10:02.256Z,87.6
2017-06-27T02:20:02.058Z,88.27
2017-06-27T02:30:02.533Z,88.49
2017-06-27T02:40:02.399Z,88.46
2017-06-27T02:50:02.563Z,88.57
2017-06-27T03:00:02.047Z,89.04
2017-06-27T03:10:02.482Z,89.36
2017-06-27T03:20:02.620Z,89.84
2017-06-27T03:30:02.049Z,89.71
2017-06-27T03:40:02.516Z,90.58
2017-06-27T03:50:02.425Z,90.42
2017-06-27T04:00:02.906Z,90.74
2017-06-27T04:10:02.959Z,90.62
2017-06-27T04:20:02.218Z,90.77
2017-06-27T04:30:02.738Z,89.42
2017-06-27T04:40:02.219Z,90.39
2017-06-27T04:50:02.640Z,89.95
2017-06-27T05:00:02.750Z,90.57
2017-06-27T05:10:02.403Z,89.73
2017-06-27T05:20:02.226Z,90.86
2017-06-27T05:30:02.688Z,89.14
2017-06-27T05:40:02.166Z,88.17
2017-06-27T05:50:02.411Z,87.97
2017-06-27T06:00:02.876Z,86.77
2017-06-27T06:10:02.888Z,86.02
2017-06-27T06:20:02.218Z,85.89
2017-06-27T06:30:02.671Z,84.71
2017-06-27T06:40:02.395Z,84.98
2017-06-27T06:50:02.720Z,83.89
2017-06-27T07:00:02.195Z,80.11
2017-06-27T07:10:02.972Z,79.23
2017-06-27T07:20:02.788Z,78.08
2017-06-27T07:30:02.261Z,79.35
2017-06-27T07:40:02.968Z,74.27
2017-06-27T07:50:02.786Z,75.26
2017-06-27T08:00:02.303Z,75.67
2017-06-27T08:10:02.663Z,70.5
2017-06-27T08:20:02.612Z,72.53
2017-06-27T08:30:02.074Z,68.66
2017-06-27T08:40:02.560Z,68.99
2017-06-27T08:50:02.990Z,66.89
2017-06-27T09:00:02.435Z,65.52
2017-06-27T09:10:03.216Z,66.88
2017-06-27T09:20:02.896Z,69.53
2017-06-27T09:30:02.438Z,68.25
2017-06-27T09:40:02.097Z,67.71
2017-06-27T09:50:02.223Z,66.03
2017-06-27T10:00:02.696Z,65.26
2017-06-27T10:10:02.687Z,68.36
2017-06-27T10:20:03.001Z,64.76
2017-06-27T10:30:02.468Z,66.65
2017-06-27T10:40:02.892Z,64.32
2017-06-27T10:50:02.211Z,64.32
2017-06-27T11:00:02.698Z,62.35
2017-06-27T11:10:02.995Z,61.98
2017-06-27T11:20:02.293Z,64.17
2017-06-27T11:30:02.753Z,64.27
2017-06-27T11:40:02.939Z,64.35
2017-06-27T11:50:02.276Z,64.98
2017-06-27T12:00:02.774Z,61.03
2017-06-27T12:10:02.642Z,62.63
2017-06-27T12:20:02.713Z,61.79
2017-06-27T12:30:02.149Z,62.49
2017-06-27T12:40:02.610Z,62.9
2017-06-27T12:50:02.662Z,64.28
2017-06-27T13:00:02.186Z,60.05
2017-06-27T13:10:02.335Z,63.19
2017-06-27T13:20:03.021Z,62.1
2017-06-27T13:30:02.466Z,61.6
2017-06-27T13:40:02.446Z,64.23
2017-06-27T13:50:02.702Z,58.49
2017-06-27T14:00:02.185Z,57.81
2017-06-27T14:10:02.970Z,59.97
2017-06-27T14:20:02.939Z,60.89
2017-06-27T14:30:02.406Z,60.93
2017-06-27T14:40:02.886Z,59.5
2017-06-27T14:50:02.667Z,62.79
2017-06-27T15:00:02.119Z,62.79
2017-06-27T15:10:02.111Z,64.36
2017-06-27T15:20:02.544Z,67.28
2017-06-27T15:30:02.980Z,65.99
2017-06-27T15:40:02.457Z,67.25
2017-06-27T15:50:02.706Z,67.3
2017-06-27T16:00:02.144Z,68.8
2017-06-27T16:20:02.162Z,71.12
2017-06-27T16:30:02.584Z,71.14
2017-06-27T16:40:03.051Z,71.98
2017-06-27T16:50:02.693Z,71.75
2017-06-27T17:00:02.159Z,71.24
2017-06-27T17:10:02.681Z,72.66
2017-06-27T17:20:02.493Z,74.29
2017-06-27T17:30:02.948Z,75.11
2017-06-27T17:40:02.604Z,75.58
2017-06-27T17:50:02.046Z,75.88
2017-06-27T18:00:02.556Z,76.18
2017-06-27T18:10:02.332Z,78.22
2017-06-27T18:20:02.698Z,78.4
2017-06-27T18:30:02.132Z,78.64
2017-06-27T18:40:02.605Z,80.25
2017-06-27T18:50:02.418Z,78.78
2017-06-27T19:00:02.899Z,79.09
2017-06-27T19:10:02.437Z,78.94
2017-06-27T19:20:02.396Z,79.52
2017-06-27T19:30:02.845Z,79.84
2017-06-27T19:40:02.478Z,79.59
2017-06-27T19:50:02.106Z,79.58
2017-06-27T20:00:02.586Z,79.45
2017-06-27T20:10:03.033Z,79.07
2017-06-27T20:20:02.230Z,79.4
2017-06-27T20:30:02.706Z,80.63
2017-06-27T20:40:02.169Z,81.66
2017-06-27T20:50:02.988Z,85.95
2017-06-27T21:00:02.425Z,86.14
2017-06-27T21:10:02.626Z,87.16
2017-06-27T21:20:02.701Z,87.86
2017-06-27T21:30:02.117Z,86.95
2017-06-27T21:40:02.562Z,86.47
2017-06-27T21:50:02.487Z,86.56
2017-06-27T22:00:03.116Z,86.37
2017-06-27T22:10:02.138Z,86.38
2017-06-27T22:20:02.797Z,86.63
2017-06-27T22:30:02.249Z,86.53
2017-06-27T22:40:02.371Z,86.89
2017-06-27T22:50:02.693Z,86.91
2017-06-27T23:00:02.184Z,87.56
2017-06-27T23:10:02.060Z,86.99
2017-06-27T23:20:02.360Z,87.09
2017-06-27T23:30:02.801Z,87.07
2017-06-27T23:40:02.264Z,86.81
2017-06-27T23:50:02.911Z,86.57
